createdAt,value
2017-05-04T00:00:19.885Z,0
2017-05-04T00:01:20.187Z,0
2017-05-04T00:02:20.176Z,0
2017-05-04T00:03:20.169Z,0
2017-05-04T00:04:19.860Z,0
2017-05-04T00:05:20.153Z,0
2017-05-04T00:06:20.150Z,0
2017-05-04T00:07:20.142Z,0
2017-05-04T00:08:20.132Z,0
2017-05-04T00:09:20.127Z,0
2017-05-04T00:10:19.816Z,0
2017-05-04T00:11:20.108Z,0
2017-05-04T00:12:20.102Z,0
2017-05-04T00:13:19.797Z,0
2017-05-04T00:14:19.788Z,0
2017-05-04T00:15:20.080Z,0
2017-05-04T00:16:20.075Z,0
2017-05-04T00:17:20.062Z,0
2017-05-04T00:18:19.755Z,0
2017-05-04T00:19:19.749Z,0
2017-05-04T00:20:19.735Z,0
2017-05-04T00:21:20.033Z,0
2017-05-04T00:22:19.722Z,0
2017-05-04T00:23:19.752Z,0
2017-05-04T00:24:19.707Z,0
2017-05-04T00:25:20.002Z,0
2017-05-04T00:26:20.000Z,0
2017-05-04T00:27:19.991Z,0
2017-05-04T00:28:19.986Z,0
2017-05-04T00:29:19.977Z,0
2017-05-04T00:30:19.968Z,0
2017-05-04T00:31:19.964Z,0
2017-05-04T00:32:19.651Z,0
2017-05-04T00:33:19.948Z,0
2017-05-04T00:34:19.935Z,0
2017-05-04T00:35:19.931Z,0
2017-05-04T00:36:19.923Z,0
2017-05-04T00:37:19.916Z,0
2017-05-04T00:38:19.907Z,0
2017-05-04T00:39:19.605Z,0
2017-05-04T00:40:19.897Z,0
2017-05-04T00:41:19.283Z,0
2017-05-04T00:42:19.878Z,0
2017-05-04T00:43:19.866Z,0
2017-05-04T00:44:19.560Z,0
2017-05-04T00:45:19.851Z,0
2017-05-04T00:46:19.844Z,0
2017-05-04T00:47:19.837Z,0
2017-05-04T00:48:19.528Z,0
2017-05-04T00:49:19.823Z,0
2017-05-04T00:50:19.851Z,0
2017-05-04T00:51:19.504Z,0
2017-05-04T00:52:19.503Z,0
2017-05-04T00:53:19.493Z,0
2017-05-04T00:54:19.793Z,0
2017-05-04T00:55:19.782Z,0
2017-05-04T00:56:19.768Z,0
2017-05-04T00:57:19.765Z,0
2017-05-04T00:58:19.754Z,0
2017-05-04T00:59:19.145Z,0
2017-05-04T01:00:19.738Z,0
2017-05-04T01:01:19.732Z,0
2017-05-04T01:02:19.428Z,0
2017-05-04T01:03:19.414Z,0
2017-05-04T01:04:19.420Z,0
2017-05-04T01:05:19.715Z,0
2017-05-04T01:06:19.696Z,0
2017-05-04T01:07:19.689Z,0
2017-05-04T01:08:19.680Z,0
2017-05-04T01:09:19.676Z,0
2017-05-04T01:10:19.662Z,0
2017-05-04T01:11:19.363Z,0
2017-05-04T01:12:19.351Z,0
2017-05-04T01:13:19.338Z,0
2017-05-04T01:14:19.635Z,0
2017-05-04T01:15:19.322Z,0
2017-05-04T01:16:19.630Z,0
2017-05-04T01:17:19.622Z,0
2017-05-04T01:18:19.296Z,0
2017-05-04T01:19:19.594Z,0
2017-05-04T01:20:19.589Z,0
2017-05-04T01:21:19.578Z,0
2017-05-04T01:22:19.262Z,0
2017-05-04T01:23:19.512Z,0
2017-05-04T01:24:19.548Z,0
2017-05-04T01:25:19.237Z,0
2017-05-04T01:26:19.230Z,0
2017-05-04T01:27:19.550Z,0
2017-05-04T01:28:19.216Z,0
2017-05-04T01:29:19.509Z,0
2017-05-04T01:30:19.497Z,0
2017-05-04T01:31:19.491Z,0
2017-05-04T01:32:18.882Z,0
2017-05-04T01:33:19.474Z,0
2017-05-04T01:34:18.863Z,0
2017-05-04T01:35:19.459Z,0
2017-05-04T01:36:19.150Z,0
2017-05-04T01:37:19.147Z,0
2017-05-04T01:38:19.454Z,0
2017-05-04T01:39:19.454Z,0
2017-05-04T01:40:19.421Z,0
2017-05-04T01:41:18.803Z,0
2017-05-04T01:42:19.097Z,0
2017-05-04T01:43:19.090Z,0
2017-05-04T01:44:19.095Z,0
2017-05-04T01:45:19.373Z,0
2017-05-04T01:46:19.368Z,0
2017-05-04T01:47:19.356Z,0
2017-05-04T01:48:19.351Z,0
2017-05-04T01:49:19.341Z,0
2017-05-04T01:50:19.030Z,0
2017-05-04T01:51:18.715Z,0
2017-05-04T01:52:19.315Z,0
2017-05-04T01:53:19.005Z,0
2017-05-04T01:54:19.015Z,0
2017-05-04T01:55:19.290Z,0
2017-05-04T01:56:18.674Z,0
2017-05-04T01:57:19.275Z,0
2017-05-04T01:58:18.660Z,0
2017-05-04T01:59:19.282Z,0
2017-05-04T02:00:19.245Z,0
2017-05-04T02:01:19.241Z,0
2017-05-04T02:02:18.930Z,0
2017-05-04T02:03:19.248Z,0
2017-05-04T02:04:19.219Z,0
2017-05-04T02:05:19.207Z,0
2017-05-04T02:06:19.198Z,0
2017-05-04T02:07:18.280Z,0
2017-05-04T02:08:18.881Z,0
2017-05-04T02:09:18.573Z,0
2017-05-04T02:10:18.862Z,0
2017-05-04T02:11:18.550Z,0
2017-05-04T02:12:19.162Z,0
2017-05-04T02:13:18.531Z,0
2017-05-04T02:14:18.835Z,0
2017-05-04T02:15:19.128Z,0
2017-05-04T02:16:19.113Z,0
2017-05-04T02:17:19.109Z,0
2017-05-04T02:18:18.798Z,0
2017-05-04T02:19:19.119Z,0
2017-05-04T02:20:18.779Z,0
2017-05-04T02:21:18.769Z,0
2017-05-04T02:22:19.070Z,0
2017-05-04T02:23:19.060Z,0
2017-05-04T02:24:19.056Z,0
2017-05-04T02:25:19.038Z,0
2017-05-04T02:26:19.037Z,0
2017-05-04T02:27:19.028Z,0
2017-05-04T02:28:19.024Z,0
2017-05-04T02:29:18.713Z,0
2017-05-04T02:30:19.008Z,0
2017-05-04T02:31:18.687Z,0
2017-05-04T02:32:18.983Z,0
2017-05-04T02:33:18.989Z,0
2017-05-04T02:34:18.666Z,0
2017-05-04T02:35:18.959Z,0
2017-05-04T02:36:18.651Z,0
2017-05-04T02:37:18.640Z,0
2017-05-04T02:38:18.938Z,0
2017-05-04T02:39:18.927Z,0
2017-05-04T02:40:18.616Z,0
2017-05-04T02:41:18.910Z,0
2017-05-04T02:42:18.913Z,0
2017-05-04T02:43:18.596Z,0
2017-05-04T02:44:18.903Z,0
2017-05-04T02:45:18.886Z,0
2017-05-04T02:46:18.872Z,0
2017-05-04T02:47:18.860Z,0
2017-05-04T02:48:18.857Z,0
2017-05-04T02:49:18.544Z,0
2017-05-04T02:50:18.841Z,0
2017-05-04T02:51:18.532Z,0
2017-05-04T02:52:18.829Z,0
2017-05-04T02:53:18.814Z,0
2017-05-04T02:54:18.811Z,0
2017-05-04T02:55:18.495Z,0
2017-05-04T02:56:18.486Z,0
2017-05-04T02:57:18.779Z,0
2017-05-04T02:58:18.797Z,0
2017-05-04T02:59:18.158Z,0
2017-05-04T03:00:18.455Z,0
2017-05-04T03:01:18.747Z,0
2017-05-04T03:02:18.435Z,0
2017-05-04T03:03:18.735Z,0
2017-05-04T03:04:18.729Z,0
2017-05-04T03:05:18.413Z,0
2017-05-04T03:06:18.405Z,0
2017-05-04T03:07:18.702Z,0
2017-05-04T03:08:18.687Z,0
2017-05-04T03:09:18.678Z,0
2017-05-04T03:10:18.671Z,0
2017-05-04T03:11:18.660Z,0
2017-05-04T03:12:18.348Z,0
2017-05-04T03:13:18.643Z,0
2017-05-04T03:14:18.355Z,0
2017-05-04T03:15:18.623Z,0
2017-05-04T03:16:18.616Z,0
2017-05-04T03:17:18.306Z,0
2017-05-04T03:18:18.294Z,0
2017-05-04T03:19:18.300Z,0
2017-05-04T03:20:18.580Z,0
2017-05-04T03:21:18.579Z,0
2017-05-04T03:22:18.258Z,0
2017-05-04T03:23:18.255Z,0
2017-05-04T03:24:18.545Z,0
2017-05-04T03:25:18.536Z,0
2017-05-04T03:26:18.530Z,0
2017-05-04T03:27:18.217Z,0
2017-05-04T03:28:18.536Z,0
2017-05-04T03:29:18.504Z,0
2017-05-04T03:30:18.490Z,0
2017-05-04T03:31:18.486Z,0
2017-05-04T03:32:18.478Z,5
2017-05-04T03:33:18.465Z,5
2017-05-04T03:34:18.460Z,5
2017-05-04T03:35:18.153Z,5
2017-05-04T03:36:18.133Z,5
2017-05-04T03:37:18.125Z,5
2017-05-04T03:38:18.118Z,5
2017-05-04T03:39:18.410Z,10
2017-05-04T03:40:18.410Z,10
2017-05-04T03:41:18.088Z,10
2017-05-04T03:42:18.082Z,10
2017-05-04T03:43:18.378Z,10
2017-05-04T03:44:18.518Z,5
2017-05-04T03:45:18.356Z,5
2017-05-04T03:46:18.345Z,5
2017-05-04T03:47:18.337Z,5
2017-05-04T03:48:18.334Z,5
2017-05-04T03:49:18.317Z,5
2017-05-04T03:50:18.309Z,5
2017-05-04T03:51:18.000Z,5
2017-05-04T03:52:17.990Z,5
2017-05-04T03:53:17.979Z,5
2017-05-04T03:54:17.671Z,5
2017-05-04T03:55:17.958Z,10
2017-05-04T03:56:18.252Z,10
2017-05-04T03:57:18.246Z,15
2017-05-04T03:58:17.937Z,15
2017-05-04T03:59:18.227Z,15
2017-05-04T04:00:18.216Z,15
2017-05-04T04:01:18.206Z,15
2017-05-04T04:02:18.199Z,15
2017-05-04T04:03:18.192Z,15
2017-05-04T04:04:18.187Z,15
2017-05-04T04:05:17.870Z,15
2017-05-04T04:06:17.853Z,15
2017-05-04T04:07:17.855Z,15
2017-05-04T04:08:17.842Z,15
2017-05-04T04:09:18.141Z,15
2017-05-04T04:10:17.513Z,15
2017-05-04T04:11:18.113Z,15
2017-05-04T04:12:17.502Z,15
2017-05-04T04:13:17.807Z,20
2017-05-04T04:14:17.780Z,25
2017-05-04T04:15:18.075Z,25
2017-05-04T04:16:17.761Z,30
2017-05-04T04:17:17.750Z,30
2017-05-04T04:18:18.044Z,35
2017-05-04T04:19:18.035Z,35
2017-05-04T04:20:18.026Z,35
2017-05-04T04:21:18.015Z,35
2017-05-04T04:22:17.705Z,35
2017-05-04T04:23:17.999Z,35
2017-05-04T04:24:17.990Z,35
2017-05-04T04:25:17.978Z,30
2017-05-04T04:26:17.369Z,30
2017-05-04T04:27:17.960Z,30
2017-05-04T04:28:17.651Z,35
2017-05-04T04:29:17.942Z,35
2017-05-04T04:30:17.627Z,30
2017-05-04T04:31:17.625Z,30
2017-05-04T04:32:17.608Z,30
2017-05-04T04:33:17.600Z,30
2017-05-04T04:34:17.594Z,30
2017-05-04T04:35:17.884Z,30
2017-05-04T04:36:17.571Z,30
2017-05-04T04:37:17.867Z,30
2017-05-04T04:38:17.857Z,30
2017-05-04T04:39:17.877Z,30
2017-05-04T04:40:17.531Z,30
2017-05-04T04:41:17.525Z,30
2017-05-04T04:42:17.817Z,30
2017-05-04T04:43:17.205Z,30
2017-05-04T04:44:17.495Z,30
2017-05-04T04:45:17.179Z,30
2017-05-04T04:46:17.477Z,25
2017-05-04T04:47:17.765Z,25
2017-05-04T04:48:17.453Z,25
2017-05-04T04:49:17.753Z,25
2017-05-04T04:50:17.436Z,25
2017-05-04T04:51:17.426Z,25
2017-05-04T04:52:17.419Z,30
2017-05-04T04:53:16.805Z,30
2017-05-04T04:54:17.398Z,35
2017-05-04T04:55:17.390Z,40
2017-05-04T04:56:17.378Z,45
2017-05-04T04:57:17.368Z,50
2017-05-04T04:58:17.369Z,55
2017-05-04T04:59:17.354Z,60
2017-05-04T05:00:17.658Z,70
2017-05-04T05:01:17.632Z,70
2017-05-04T05:02:17.322Z,75
2017-05-04T05:03:17.635Z,75
2017-05-04T05:04:17.611Z,75
2017-05-04T05:05:17.612Z,75
2017-05-04T05:06:16.981Z,75
2017-05-04T05:07:17.577Z,75
2017-05-04T05:08:17.263Z,70
2017-05-04T05:09:17.257Z,75
2017-05-04T05:10:17.545Z,75
2017-05-04T05:11:17.239Z,70
2017-05-04T05:12:17.532Z,65
2017-05-04T05:13:16.912Z,60
2017-05-04T05:14:17.210Z,55
2017-05-04T05:15:17.497Z,50
2017-05-04T05:16:17.190Z,50
2017-05-04T05:17:17.476Z,50
2017-05-04T05:18:17.473Z,60
2017-05-04T05:19:17.464Z,70
2017-05-04T05:20:17.149Z,75
2017-05-04T05:21:17.140Z,80
2017-05-04T05:22:17.129Z,85
2017-05-04T05:23:16.816Z,95
2017-05-04T05:24:17.422Z,85
2017-05-04T05:25:17.407Z,75
2017-05-04T05:26:16.792Z,70
2017-05-04T05:27:17.088Z,65
2017-05-04T05:28:17.382Z,55
2017-05-04T05:29:16.767Z,55
2017-05-04T05:30:17.356Z,55
2017-05-04T05:31:17.061Z,50
2017-05-04T05:32:17.047Z,50
2017-05-04T05:33:17.030Z,55
2017-05-04T05:34:16.719Z,50
2017-05-04T05:35:17.310Z,55
2017-05-04T05:36:16.699Z,60
2017-05-04T05:37:16.995Z,65
2017-05-04T05:38:16.678Z,75
2017-05-04T05:39:17.271Z,80
2017-05-04T05:40:17.271Z,80
2017-05-04T05:41:17.253Z,75
2017-05-04T05:42:17.250Z,75
2017-05-04T05:43:17.240Z,70
2017-05-04T05:44:16.924Z,70
2017-05-04T05:45:17.235Z,70
2017-05-04T05:46:16.904Z,70
2017-05-04T05:47:17.219Z,75
2017-05-04T05:48:17.194Z,75
2017-05-04T05:49:16.881Z,80
2017-05-04T05:50:16.872Z,80
2017-05-04T05:51:16.857Z,75
2017-05-04T05:52:16.846Z,75
2017-05-04T05:53:17.173Z,75
2017-05-04T05:54:17.135Z,75
2017-05-04T05:55:16.819Z,80
2017-05-04T05:56:17.114Z,85
2017-05-04T05:57:16.804Z,90
2017-05-04T05:58:17.104Z,90
2017-05-04T05:59:17.084Z,85
2017-05-04T06:00:16.777Z,85
2017-05-04T06:01:16.766Z,85
2017-05-04T06:02:16.761Z,85
2017-05-04T06:03:16.753Z,85
2017-05-04T06:04:17.050Z,85
2017-05-04T06:05:17.032Z,85
2017-05-04T06:06:16.720Z,85
2017-05-04T06:07:17.019Z,85
2017-05-04T06:08:17.000Z,85
2017-05-04T06:09:16.998Z,85
2017-05-04T06:10:16.988Z,80
2017-05-04T06:11:16.974Z,80
2017-05-04T06:12:16.662Z,80
2017-05-04T06:13:16.959Z,85
2017-05-04T06:14:16.954Z,90
2017-05-04T06:15:16.036Z,100
2017-05-04T06:16:16.622Z,115
2017-05-04T06:17:16.921Z,125
2017-05-04T06:18:16.910Z,125
2017-05-04T06:19:16.594Z,130
2017-05-04T06:20:16.891Z,140
2017-05-04T06:21:16.577Z,145
2017-05-04T06:22:16.261Z,145
2017-05-04T06:23:16.557Z,145
2017-05-04T06:24:16.250Z,150
2017-05-04T06:25:16.839Z,160
2017-05-04T06:26:16.835Z,170
2017-05-04T06:27:16.824Z,175
2017-05-04T06:28:16.519Z,190
2017-05-04T06:29:16.803Z,200
2017-05-04T06:30:16.796Z,215
2017-05-04T06:31:16.186Z,220
2017-05-04T06:32:16.775Z,220
2017-05-04T06:33:16.470Z,200
2017-05-04T06:34:16.457Z,165
2017-05-04T06:35:16.449Z,145
2017-05-04T06:36:16.745Z,140
2017-05-04T06:37:16.430Z,140
2017-05-04T06:38:15.818Z,145
2017-05-04T06:39:16.410Z,150
2017-05-04T06:40:16.401Z,160
2017-05-04T06:41:16.400Z,165
2017-05-04T06:42:16.382Z,165
2017-05-04T06:43:16.686Z,165
2017-05-04T06:44:16.681Z,175
2017-05-04T06:45:16.354Z,180
2017-05-04T06:46:16.651Z,180
2017-05-04T06:47:16.641Z,200
2017-05-04T06:48:16.032Z,220
2017-05-04T06:49:16.321Z,245
2017-05-04T06:50:16.316Z,265
2017-05-04T06:51:16.304Z,275
2017-05-04T06:52:16.602Z,280
2017-05-04T06:53:16.287Z,275
2017-05-04T06:54:16.277Z,270
2017-05-04T06:55:16.268Z,255
2017-05-04T06:56:16.557Z,235
2017-05-04T06:57:16.249Z,225
2017-05-04T06:58:15.938Z,220
2017-05-04T06:59:15.928Z,220
2017-05-04T07:00:16.521Z,215
2017-05-04T07:01:16.515Z,205
2017-05-04T07:02:16.216Z,200
2017-05-04T07:03:16.195Z,190
2017-05-04T07:04:16.196Z,175
2017-05-04T07:05:16.179Z,160
2017-05-04T07:06:16.470Z,165
2017-05-04T07:07:16.161Z,165
2017-05-04T07:08:16.151Z,160
2017-05-04T07:09:15.835Z,150
2017-05-04T07:10:16.433Z,135
2017-05-04T07:11:16.427Z,135
2017-05-04T07:12:16.115Z,140
2017-05-04T07:13:16.413Z,140
2017-05-04T07:14:16.404Z,130
2017-05-04T07:15:16.346Z,130
2017-05-04T07:16:16.081Z,135
2017-05-04T07:17:16.063Z,150
2017-05-04T07:18:16.367Z,160
2017-05-04T07:19:16.359Z,150
2017-05-04T07:20:16.344Z,135
2017-05-04T07:21:16.339Z,130
2017-05-04T07:22:16.325Z,135
2017-05-04T07:23:16.325Z,150
2017-05-04T07:24:16.006Z,165
2017-05-04T07:25:15.392Z,160
2017-05-04T07:26:15.993Z,150
2017-05-04T07:27:16.280Z,145
2017-05-04T07:28:16.272Z,135
2017-05-04T07:29:16.269Z,120
2017-05-04T07:30:16.255Z,130
2017-05-04T07:31:16.245Z,135
2017-05-04T07:32:15.936Z,120
2017-05-04T07:33:15.954Z,115
2017-05-04T07:34:16.218Z,130
2017-05-04T07:35:15.905Z,145
2017-05-04T07:36:15.903Z,165
2017-05-04T07:37:15.892Z,185
2017-05-04T07:38:15.574Z,180
2017-05-04T07:39:16.175Z,165
2017-05-04T07:40:15.559Z,150
2017-05-04T07:41:15.548Z,145
2017-05-04T07:42:16.145Z,145
2017-05-04T07:43:15.531Z,165
2017-05-04T07:44:16.141Z,190
2017-05-04T07:45:15.514Z,185
2017-05-04T07:46:15.808Z,165
2017-05-04T07:47:15.799Z,185
2017-05-04T07:48:16.091Z,195
2017-05-04T07:49:15.479Z,210
2017-05-04T07:50:15.769Z,210
2017-05-04T07:51:15.764Z,200
2017-05-04T07:52:15.758Z,200
2017-05-04T07:53:16.048Z,190
2017-05-04T07:54:16.042Z,180
2017-05-04T07:55:16.030Z,160
2017-05-04T07:56:16.019Z,175
2017-05-04T07:57:16.011Z,175
2017-05-04T07:58:15.700Z,180
2017-05-04T07:59:15.695Z,180
2017-05-04T08:00:15.381Z,180
2017-05-04T08:01:15.989Z,180
2017-05-04T08:02:15.668Z,185
2017-05-04T08:03:15.663Z,210
2017-05-04T08:04:15.350Z,225
2017-05-04T08:05:15.942Z,270
2017-05-04T08:06:15.637Z,285
2017-05-04T08:07:15.626Z,300
2017-05-04T08:08:15.610Z,315
2017-05-04T08:09:15.606Z,335
2017-05-04T08:10:15.897Z,345
2017-05-04T08:11:15.281Z,370
2017-05-04T08:12:15.575Z,370
2017-05-04T08:13:15.872Z,370
2017-05-04T08:14:15.591Z,345
2017-05-04T08:15:15.547Z,310
2017-05-04T08:16:15.865Z,265
2017-05-04T08:17:15.840Z,250
2017-05-04T08:18:15.832Z,235
2017-05-04T08:19:15.539Z,240
2017-05-04T08:20:15.206Z,260
2017-05-04T08:21:15.500Z,275
2017-05-04T08:22:15.488Z,290
2017-05-04T08:23:15.484Z,280
2017-05-04T08:24:14.865Z,295
2017-05-04T08:25:15.765Z,325
2017-05-04T08:26:15.154Z,350
2017-05-04T08:27:15.750Z,350
2017-05-04T08:28:15.437Z,385
2017-05-04T08:29:15.756Z,440
2017-05-04T08:30:15.724Z,515
2017-05-04T08:31:15.415Z,485
2017-05-04T08:32:15.709Z,430
2017-05-04T08:33:15.696Z,430
2017-05-04T08:34:15.390Z,415
2017-05-04T08:35:16.049Z,375
2017-05-04T08:36:15.681Z,390
2017-05-04T08:37:15.661Z,380
2017-05-04T08:38:15.668Z,360
2017-05-04T08:39:15.347Z,300
2017-05-04T08:40:15.341Z,275
2017-05-04T08:41:15.327Z,265
2017-05-04T08:42:15.327Z,260
2017-05-04T08:43:15.316Z,305
2017-05-04T08:44:15.303Z,375
2017-05-04T08:45:15.299Z,370
2017-05-04T08:46:15.293Z,335
2017-05-04T08:47:15.281Z,320
2017-05-04T08:48:15.274Z,265
2017-05-04T08:49:15.267Z,225
2017-05-04T08:50:15.258Z,215
2017-05-04T08:51:15.250Z,165
2017-05-04T08:52:14.936Z,165
2017-05-04T08:53:15.231Z,225
2017-05-04T08:54:14.922Z,210
2017-05-04T08:55:15.519Z,215
2017-05-04T08:56:15.212Z,225
2017-05-04T08:57:15.200Z,210
2017-05-04T08:58:15.495Z,155
2017-05-04T08:59:15.182Z,125
2017-05-04T09:00:15.176Z,120
2017-05-04T09:01:15.474Z,115
2017-05-04T09:02:15.157Z,140
2017-05-04T09:03:15.155Z,180
2017-05-04T09:04:15.141Z,120
2017-05-04T09:05:15.131Z,100
2017-05-04T09:06:15.127Z,90
2017-05-04T09:07:15.116Z,120
2017-05-04T09:08:15.109Z,165
2017-05-04T09:09:15.405Z,190
2017-05-04T09:10:14.788Z,165
2017-05-04T09:11:14.779Z,115
2017-05-04T09:12:15.073Z,95
2017-05-04T09:13:15.069Z,85
2017-05-04T09:14:14.455Z,105
2017-05-04T09:15:14.750Z,125
2017-05-04T09:16:14.738Z,120
2017-05-04T09:17:15.031Z,135
2017-05-04T09:18:14.717Z,140
2017-05-04T09:19:15.023Z,125
2017-05-04T09:20:14.700Z,145
2017-05-04T09:21:15.297Z,135
2017-05-04T09:22:15.291Z,130
2017-05-04T09:23:15.285Z,155
2017-05-04T09:24:14.667Z,195
2017-05-04T09:25:14.654Z,180
2017-05-04T09:26:15.256Z,175
2017-05-04T09:27:14.639Z,155
2017-05-04T09:28:14.630Z,170
2017-05-04T09:29:15.235Z,185
2017-05-04T09:30:14.915Z,185
2017-05-04T09:31:15.215Z,155
2017-05-04T09:32:14.895Z,140
2017-05-04T09:33:15.191Z,140
2017-05-04T09:34:14.579Z,140
2017-05-04T09:35:15.178Z,135
2017-05-04T09:36:15.165Z,170
2017-05-04T09:37:15.157Z,170
2017-05-04T09:38:14.843Z,175
2017-05-04T09:39:15.138Z,155
2017-05-04T09:40:14.824Z,145
2017-05-04T09:41:15.119Z,155
2017-05-04T09:42:14.507Z,155
2017-05-04T09:43:15.102Z,170
2017-05-04T09:44:14.489Z,170
2017-05-04T09:45:14.480Z,155
2017-05-04T09:46:15.074Z,145
2017-05-04T09:47:15.077Z,140
2017-05-04T09:48:14.454Z,160
2017-05-04T09:49:14.747Z,160
2017-05-04T09:50:14.737Z,175
2017-05-04T09:51:14.729Z,175
2017-05-04T09:52:14.725Z,165
2017-05-04T09:53:14.713Z,170
2017-05-04T09:54:14.704Z,165
2017-05-04T09:55:14.691Z,160
2017-05-04T09:56:14.684Z,155
2017-05-04T09:57:14.979Z,155
2017-05-04T09:58:14.366Z,160
2017-05-04T09:59:14.659Z,160
2017-05-04T10:00:14.650Z,160
2017-05-04T10:01:14.946Z,150
2017-05-04T10:02:14.633Z,160
2017-05-04T10:03:14.668Z,160
2017-05-04T10:04:14.922Z,145
2017-05-04T10:05:14.608Z,150
2017-05-04T10:06:14.293Z,150
2017-05-04T10:07:14.286Z,175
2017-05-04T10:08:14.583Z,185
2017-05-04T10:09:14.576Z,175
2017-05-04T10:10:14.866Z,170
2017-05-04T10:11:14.862Z,165
2017-05-04T10:12:14.551Z,180
2017-05-04T10:13:14.547Z,180
2017-05-04T10:14:14.842Z,175
2017-05-04T10:15:14.825Z,190
2017-05-04T10:16:14.820Z,190
2017-05-04T10:17:14.811Z,205
2017-05-04T10:18:14.497Z,195
2017-05-04T10:19:14.790Z,230
2017-05-04T10:20:14.477Z,225
2017-05-04T10:21:14.479Z,225
2017-05-04T10:22:14.159Z,210
2017-05-04T10:23:14.454Z,215
2017-05-04T10:24:14.143Z,205
2017-05-04T10:25:14.434Z,215
2017-05-04T10:26:14.732Z,215
2017-05-04T10:27:14.417Z,225
2017-05-04T10:28:14.415Z,210
2017-05-04T10:29:14.402Z,200
2017-05-04T10:30:14.394Z,220
2017-05-04T10:31:14.082Z,235
2017-05-04T10:32:14.684Z,225
2017-05-04T10:33:14.076Z,200
2017-05-04T10:34:14.366Z,230
2017-05-04T10:35:14.360Z,220
2017-05-04T10:36:14.042Z,190
2017-05-04T10:37:14.334Z,195
2017-05-04T10:38:14.629Z,190
2017-05-04T10:39:14.320Z,190
2017-05-04T10:40:14.314Z,215
2017-05-04T10:41:14.609Z,205
2017-05-04T10:42:13.991Z,210
2017-05-04T10:43:14.293Z,250
2017-05-04T10:44:14.282Z,225
2017-05-04T10:45:14.578Z,210
2017-05-04T10:46:14.566Z,205
2017-05-04T10:47:14.254Z,205
2017-05-04T10:48:14.251Z,245
2017-05-04T10:49:14.246Z,235
2017-05-04T10:50:14.244Z,225
2017-05-04T10:51:14.225Z,225
2017-05-04T10:52:14.218Z,215
2017-05-04T10:53:14.206Z,215
2017-05-04T10:54:13.595Z,205
2017-05-04T10:55:13.893Z,230
2017-05-04T10:56:14.186Z,260
2017-05-04T10:57:14.181Z,225
2017-05-04T10:58:14.170Z,250
2017-05-04T10:59:14.158Z,230
2017-05-04T11:00:14.152Z,255
2017-05-04T11:01:14.151Z,245
2017-05-04T11:02:14.148Z,260
2017-05-04T11:03:14.128Z,265
2017-05-04T11:04:14.123Z,295
2017-05-04T11:05:14.112Z,245
2017-05-04T11:06:14.102Z,225
2017-05-04T11:07:13.809Z,210
2017-05-04T11:08:14.090Z,240
2017-05-04T11:09:14.079Z,230
2017-05-04T11:10:13.767Z,230
2017-05-04T11:11:14.063Z,205
2017-05-04T11:12:14.361Z,255
2017-05-04T11:13:14.055Z,340
2017-05-04T11:14:14.346Z,285
2017-05-04T11:15:14.336Z,300
2017-05-04T11:16:14.026Z,330
2017-05-04T11:17:14.014Z,305
2017-05-04T11:18:14.318Z,300
2017-05-04T11:19:13.999Z,260
2017-05-04T11:20:13.997Z,250
2017-05-04T11:21:13.978Z,225
2017-05-04T11:22:14.282Z,190
2017-05-04T11:23:13.972Z,225
2017-05-04T11:24:14.269Z,250
2017-05-04T11:25:13.954Z,225
2017-05-04T11:26:14.247Z,210
2017-05-04T11:27:14.238Z,215
2017-05-04T11:28:13.933Z,220
2017-05-04T11:29:13.925Z,235
2017-05-04T11:30:14.220Z,250
2017-05-04T11:31:14.208Z,250
2017-05-04T11:32:13.902Z,235
2017-05-04T11:33:14.194Z,230
2017-05-04T11:34:14.182Z,215
2017-05-04T11:35:14.177Z,225
2017-05-04T11:36:14.171Z,215
2017-05-04T11:37:13.857Z,215
2017-05-04T11:38:13.855Z,190
2017-05-04T11:39:13.842Z,200
2017-05-04T11:40:14.134Z,195
2017-05-04T11:41:13.824Z,170
2017-05-04T11:42:13.817Z,220
2017-05-04T11:43:13.810Z,210
2017-05-04T11:44:14.125Z,190
2017-05-04T11:45:14.095Z,215
2017-05-04T11:46:14.090Z,250
2017-05-04T11:47:14.085Z,245
2017-05-04T11:48:13.470Z,240
2017-05-04T11:49:14.071Z,235
2017-05-04T11:50:14.056Z,225
2017-05-04T11:51:14.049Z,235
2017-05-04T11:52:13.461Z,245
2017-05-04T11:53:14.042Z,255
2017-05-04T11:54:13.724Z,260
2017-05-04T11:55:13.411Z,275
2017-05-04T11:56:14.028Z,230
2017-05-04T11:57:13.401Z,240
2017-05-04T11:58:13.997Z,225
2017-05-04T11:59:13.695Z,205
2017-05-04T12:00:13.677Z,230
2017-05-04T12:01:13.364Z,205
2017-05-04T12:02:13.659Z,205
2017-05-04T12:03:13.954Z,190
2017-05-04T12:04:13.643Z,190
2017-05-04T12:05:13.936Z,195
2017-05-04T12:06:13.322Z,190
2017-05-04T12:07:13.313Z,215
2017-05-04T12:08:13.609Z,200
2017-05-04T12:09:13.905Z,195
2017-05-04T12:10:13.291Z,220
2017-05-04T12:11:13.591Z,245
2017-05-04T12:12:13.582Z,240
2017-05-04T12:13:13.573Z,195
2017-05-04T12:14:13.564Z,200
2017-05-04T12:15:13.865Z,210
2017-05-04T12:16:13.851Z,195
2017-05-04T12:17:13.537Z,225
2017-05-04T12:18:13.532Z,210
2017-05-04T12:19:13.832Z,190
2017-05-04T12:20:13.820Z,200
2017-05-04T12:21:13.816Z,235
2017-05-04T12:22:13.806Z,255
2017-05-04T12:23:13.795Z,245
2017-05-04T12:24:13.803Z,265
2017-05-04T12:25:13.786Z,255
2017-05-04T12:26:13.779Z,270
2017-05-04T12:27:13.765Z,295
2017-05-04T12:28:13.755Z,240
2017-05-04T12:29:13.750Z,265
2017-05-04T12:30:13.748Z,270
2017-05-04T12:31:13.732Z,290
2017-05-04T12:32:13.423Z,305
2017-05-04T12:33:13.720Z,340
2017-05-04T12:34:13.409Z,290
2017-05-04T12:35:13.731Z,285
2017-05-04T12:36:13.393Z,260
2017-05-04T12:37:13.086Z,230
2017-05-04T12:38:13.373Z,260
2017-05-04T12:39:13.676Z,215
2017-05-04T12:40:13.676Z,205
2017-05-04T12:41:13.658Z,210
2017-05-04T12:42:13.648Z,220
2017-05-04T12:43:13.651Z,250
2017-05-04T12:44:13.327Z,290
2017-05-04T12:45:13.324Z,295
2017-05-04T12:46:13.620Z,300
2017-05-04T12:47:13.616Z,340
2017-05-04T12:48:13.611Z,355
2017-05-04T12:49:13.598Z,305
2017-05-04T12:50:13.589Z,295
2017-05-04T12:51:13.610Z,275
2017-05-04T12:52:13.573Z,265
2017-05-04T12:53:13.571Z,320
2017-05-04T12:54:13.255Z,260
2017-05-04T12:55:13.552Z,170
2017-05-04T12:56:13.543Z,205
2017-05-04T12:57:13.538Z,265
2017-05-04T12:58:13.525Z,220
2017-05-04T12:59:13.229Z,245
2017-05-04T13:00:13.210Z,255
2017-05-04T13:01:13.199Z,315
2017-05-04T13:02:13.500Z,340
2017-05-04T13:03:13.493Z,340
2017-05-04T13:04:13.488Z,245
2017-05-04T13:05:13.469Z,250
2017-05-04T13:06:13.467Z,250
2017-05-04T13:07:13.158Z,195
2017-05-04T13:08:13.148Z,185
2017-05-04T13:09:13.139Z,195
2017-05-04T13:10:13.457Z,200
2017-05-04T13:11:13.427Z,220
2017-05-04T13:12:13.422Z,220
2017-05-04T13:13:13.409Z,235
2017-05-04T13:14:13.126Z,205
2017-05-04T13:15:13.397Z,215
2017-05-04T13:16:13.393Z,195
2017-05-04T13:17:13.380Z,180
2017-05-04T13:18:13.071Z,150
2017-05-04T13:19:13.061Z,160
2017-05-04T13:20:13.368Z,145
2017-05-04T13:21:13.349Z,140
2017-05-04T13:22:13.347Z,140
2017-05-04T13:23:12.727Z,140
2017-05-04T13:24:13.332Z,165
2017-05-04T13:25:13.318Z,165
2017-05-04T13:26:13.036Z,155
2017-05-04T13:27:13.312Z,125
2017-05-04T13:28:13.296Z,135
2017-05-04T13:29:13.289Z,150
2017-05-04T13:30:13.292Z,135
2017-05-04T13:31:12.969Z,145
2017-05-04T13:32:13.267Z,145
2017-05-04T13:33:13.260Z,160
2017-05-04T13:34:12.945Z,145
2017-05-04T13:35:13.240Z,145
2017-05-04T13:36:12.930Z,150
2017-05-04T13:37:13.231Z,145
2017-05-04T13:38:12.915Z,150
2017-05-04T13:39:12.903Z,135
2017-05-04T13:40:12.296Z,120
2017-05-04T13:41:12.887Z,120
2017-05-04T13:42:12.578Z,155
2017-05-04T13:43:12.874Z,145
2017-05-04T13:44:13.167Z,155
2017-05-04T13:45:12.554Z,145
2017-05-04T13:46:13.153Z,155
2017-05-04T13:47:13.144Z,175
2017-05-04T13:48:12.856Z,170
2017-05-04T13:49:12.523Z,160
2017-05-04T13:50:12.515Z,165
2017-05-04T13:51:13.110Z,165
2017-05-04T13:52:12.801Z,155
2017-05-04T13:53:13.095Z,145
2017-05-04T13:54:12.482Z,150
2017-05-04T13:55:13.082Z,155
2017-05-04T13:56:12.771Z,130
2017-05-04T13:57:13.067Z,130
2017-05-04T13:58:12.758Z,135
2017-05-04T13:59:12.747Z,130
2017-05-04T14:00:13.039Z,130
2017-05-04T14:01:13.033Z,115
2017-05-04T14:02:12.723Z,115
2017-05-04T14:03:12.409Z,120
2017-05-04T14:04:13.011Z,130
2017-05-04T14:05:12.700Z,150
2017-05-04T14:06:12.690Z,135
2017-05-04T14:07:12.683Z,135